sensor_id;sensor_type;location;lat;lon;timestamp;P1;durP1;ratioP1;P2;durP2;ratioP2
67274;SDS011;55463;52.324;5.122;2023-08-21T00:00:41;4.20;;;2.15;;
67274;SDS011;55463;52.324;5.122;2023-08-21T00:03:07;6.57;;;2.10;;
67274;SDS011;55463;52.324;5.122;2023-08-21T00:05:33;7.95;;;2.53;;
67274;SDS011;55463;52.324;5.122;2023-08-21T00:07:58;6.32;;;2.38;;
67274;SDS011;55463;52.324;5.122;2023-08-21T00:10:23;5.00;;;2.20;;
67274;SDS011;55463;52.324;5.122;2023-08-21T00:12:49;9.32;;;2.63;;
67274;SDS011;55463;52.324;5.122;2023-08-21T00:15:14;6.40;;;2.10;;
67274;SDS011;55463;52.324;5.122;2023-08-21T00:17:40;7.13;;;2.25;;
67274;SDS011;55463;52.324;5.122;2023-08-21T00:20:05;5.45;;;1.85;;
67274;SDS011;55463;52.324;5.122;2023-08-21T00:22:34;4.95;;;2.33;;
67274;SDS011;55463;52.324;5.122;2023-08-21T00:25:00;8.65;;;2.20;;
67274;SDS011;55463;52.324;5.122;2023-08-21T00:27:25;10.15;;;2.83;;
67274;SDS011;55463;52.324;5.122;2023-08-21T00:29:51;5.57;;;2.08;;
67274;SDS011;55463;52.324;5.122;2023-08-21T00:32:16;5.05;;;2.42;;
67274;SDS011;55463;52.324;5.122;2023-08-21T00:34:42;5.68;;;2.10;;
67274;SDS011;55463;52.324;5.122;2023-08-21T00:37:07;5.53;;;1.80;;
67274;SDS011;55463;52.324;5.122;2023-08-21T00:39:32;6.20;;;2.30;;
67274;SDS011;55463;52.324;5.122;2023-08-21T00:41:58;5.10;;;2.17;;
67274;SDS011;55463;52.324;5.122;2023-08-21T00:44:23;5.55;;;2.38;;
67274;SDS011;55463;52.324;5.122;2023-08-21T00:46:48;8.13;;;2.20;;
67274;SDS011;55463;52.324;5.122;2023-08-21T00:49:14;6.10;;;2.28;;
67274;SDS011;55463;52.324;5.122;2023-08-21T00:51:39;4.65;;;2.22;;
67274;SDS011;55463;52.324;5.122;2023-08-21T00:54:05;6.43;;;2.78;;
67274;SDS011;55463;52.324;5.122;2023-08-21T00:56:30;6.28;;;2.65;;
67274;SDS011;55463;52.324;5.122;2023-08-21T00:58:56;6.90;;;2.47;;
67274;SDS011;55463;52.324;5.122;2023-08-21T01:01:23;4.45;;;2.05;;
67274;SDS011;55463;52.324;5.122;2023-08-21T01:03:52;2.78;;;1.80;;
67274;SDS011;55463;52.324;5.122;2023-08-21T01:06:18;6.20;;;2.60;;
67274;SDS011;55463;52.324;5.122;2023-08-21T01:09:46;6.05;;;2.45;;
67274;SDS011;55463;52.324;5.122;2023-08-21T01:11:50;13.45;;;2.20;;
67274;SDS011;55463;52.324;5.122;2023-08-21T01:17:10;6.45;;;2.10;;
67274;SDS011;55463;52.324;5.122;2023-08-21T01:19:41;4.25;;;2.20;;
67274;SDS011;55463;52.324;5.122;2023-08-21T01:22:08;4.50;;;2.13;;
67274;SDS011;55463;52.324;5.122;2023-08-21T01:24:33;7.53;;;2.15;;
67274;SDS011;55463;52.324;5.122;2023-08-21T01:26:59;7.40;;;2.60;;
67274;SDS011;55463;52.324;5.122;2023-08-21T01:29:25;3.97;;;1.90;;
67274;SDS011;55463;52.324;5.122;2023-08-21T01:31:57;3.88;;;2.10;;
67274;SDS011;55463;52.324;5.122;2023-08-21T01:34:33;4.93;;;2.13;;
67274;SDS011;55463;52.324;5.122;2023-08-21T01:37:00;6.18;;;2.35;;
67274;SDS011;55463;52.324;5.122;2023-08-21T01:39:26;6.10;;;2.08;;
67274;SDS011;55463;52.324;5.122;2023-08-21T01:41:52;5.70;;;2.42;;
67274;SDS011;55463;52.324;5.122;2023-08-21T01:44:17;6.78;;;2.30;;
67274;SDS011;55463;52.324;5.122;2023-08-21T01:46:43;6.88;;;2.60;;
67274;SDS011;55463;52.324;5.122;2023-08-21T01:49:08;6.00;;;2.20;;
67274;SDS011;55463;52.324;5.122;2023-08-21T01:51:34;3.58;;;2.05;;
67274;SDS011;55463;52.324;5.122;2023-08-21T01:53:59;4.57;;;2.30;;
67274;SDS011;55463;52.324;5.122;2023-08-21T01:56:24;4.45;;;1.70;;
67274;SDS011;55463;52.324;5.122;2023-08-21T01:58:50;5.65;;;2.15;;
67274;SDS011;55463;52.324;5.122;2023-08-21T02:01:15;7.38;;;2.20;;
67274;SDS011;55463;52.324;5.122;2023-08-21T02:03:40;6.32;;;2.25;;
67274;SDS011;55463;52.324;5.122;2023-08-21T02:06:06;5.10;;;2.35;;
67274;SDS011;55463;52.324;5.122;2023-08-21T02:08:32;4.85;;;1.95;;
67274;SDS011;55463;52.324;5.122;2023-08-21T02:10:58;6.72;;;2.17;;
67274;SDS011;55463;52.324;5.122;2023-08-21T02:13:23;5.32;;;2.08;;
67274;SDS011;55463;52.324;5.122;2023-08-21T02:15:48;5.78;;;1.80;;
67274;SDS011;55463;52.324;5.122;2023-08-21T02:18:14;4.35;;;1.90;;
67274;SDS011;55463;52.324;5.122;2023-08-21T02:20:39;7.32;;;2.20;;
67274;SDS011;55463;52.324;5.122;2023-08-21T02:23:05;7.85;;;2.10;;
67274;SDS011;55463;52.324;5.122;2023-08-21T02:25:31;2.75;;;1.83;;
67274;SDS011;55463;52.324;5.122;2023-08-21T02:27:57;2.63;;;1.95;;
67274;SDS011;55463;52.324;5.122;2023-08-21T02:30:22;4.43;;;1.88;;
67274;SDS011;55463;52.324;5.122;2023-08-21T02:32:50;4.82;;;2.00;;
67274;SDS011;55463;52.324;5.122;2023-08-21T02:35:17;3.28;;;1.80;;
67274;SDS011;55463;52.324;5.122;2023-08-21T02:37:42;3.63;;;1.95;;
67274;SDS011;55463;52.324;5.122;2023-08-21T02:40:08;5.78;;;1.98;;
67274;SDS011;55463;52.324;5.122;2023-08-21T02:42:34;3.38;;;1.67;;
67274;SDS011;55463;52.324;5.122;2023-08-21T02:45:00;4.00;;;1.80;;
67274;SDS011;55463;52.324;5.122;2023-08-21T02:47:28;4.95;;;2.08;;
67274;SDS011;55463;52.324;5.122;2023-08-21T02:49:54;6.03;;;1.90;;
67274;SDS011;55463;52.324;5.122;2023-08-21T02:52:19;3.53;;;1.70;;
67274;SDS011;55463;52.324;5.122;2023-08-21T02:54:44;5.28;;;1.98;;
67274;SDS011;55463;52.324;5.122;2023-08-21T02:57:10;2.45;;;1.85;;
67274;SDS011;55463;52.324;5.122;2023-08-21T02:59:35;5.88;;;1.80;;
67274;SDS011;55463;52.324;5.122;2023-08-21T03:02:00;4.85;;;1.90;;
67274;SDS011;55463;52.324;5.122;2023-08-21T03:04:26;3.60;;;1.92;;
67274;SDS011;55463;52.324;5.122;2023-08-21T03:06:51;1.88;;;1.50;;
67274;SDS011;55463;52.324;5.122;2023-08-21T03:09:17;2.28;;;1.70;;
67274;SDS011;55463;52.324;5.122;2023-08-21T03:11:42;4.55;;;1.75;;
67274;SDS011;55463;52.324;5.122;2023-08-21T03:14:07;4.57;;;1.80;;
67274;SDS011;55463;52.324;5.122;2023-08-21T03:16:33;7.25;;;1.80;;
67274;SDS011;55463;52.324;5.122;2023-08-21T03:18:59;6.05;;;1.50;;
67274;SDS011;55463;52.324;5.122;2023-08-21T03:21:25;5.22;;;1.80;;
67274;SDS011;55463;52.324;5.122;2023-08-21T03:23:55;3.92;;;2.00;;
67274;SDS011;55463;52.324;5.122;2023-08-21T03:26:22;3.78;;;1.73;;
67274;SDS011;55463;52.324;5.122;2023-08-21T03:28:48;3.95;;;1.60;;
67274;SDS011;55463;52.324;5.122;2023-08-21T03:31:13;4.95;;;1.77;;
67274;SDS011;55463;52.324;5.122;2023-08-21T03:33:39;7.20;;;1.85;;
67274;SDS011;55463;52.324;5.122;2023-08-21T03:36:05;4.97;;;1.75;;
67274;SDS011;55463;52.324;5.122;2023-08-21T03:38:30;3.67;;;1.77;;
67274;SDS011;55463;52.324;5.122;2023-08-21T03:40:55;2.95;;;1.60;;
67274;SDS011;55463;52.324;5.122;2023-08-21T03:43:21;5.22;;;1.73;;
67274;SDS011;55463;52.324;5.122;2023-08-21T03:45:46;2.70;;;1.80;;
67274;SDS011;55463;52.324;5.122;2023-08-21T03:48:11;4.10;;;1.70;;
67274;SDS011;55463;52.324;5.122;2023-08-21T03:50:38;4.07;;;1.73;;
67274;SDS011;55463;52.324;5.122;2023-08-21T03:53:03;5.07;;;1.70;;
67274;SDS011;55463;52.324;5.122;2023-08-21T03:55:29;5.63;;;1.90;;
67274;SDS011;55463;52.324;5.122;2023-08-21T03:57:54;4.40;;;1.80;;
67274;SDS011;55463;52.324;5.122;2023-08-21T04:00:19;4.90;;;1.83;;
67274;SDS011;55463;52.324;5.122;2023-08-21T04:02:45;5.57;;;1.80;;
67274;SDS011;55463;52.324;5.122;2023-08-21T04:05:10;3.63;;;1.83;;
67274;SDS011;55463;52.324;5.122;2023-08-21T04:07:36;3.15;;;1.70;;
67274;SDS011;55463;52.324;5.122;2023-08-21T04:10:02;5.45;;;1.80;;
67274;SDS011;55463;52.324;5.122;2023-08-21T04:12:28;8.05;;;2.42;;
67274;SDS011;55463;52.324;5.122;2023-08-21T04:14:53;6.30;;;2.10;;
67274;SDS011;55463;52.324;5.122;2023-08-21T04:17:22;2.03;;;1.70;;
67274;SDS011;55463;52.324;5.122;2023-08-21T04:19:48;3.00;;;1.90;;
67274;SDS011;55463;52.324;5.122;2023-08-21T04:22:14;2.95;;;1.90;;
67274;SDS011;55463;52.324;5.122;2023-08-21T04:24:40;2.92;;;1.63;;
67274;SDS011;55463;52.324;5.122;2023-08-21T04:27:06;3.50;;;1.77;;
67274;SDS011;55463;52.324;5.122;2023-08-21T04:29:31;3.03;;;1.75;;
67274;SDS011;55463;52.324;5.122;2023-08-21T04:31:57;2.50;;;1.77;;
67274;SDS011;55463;52.324;5.122;2023-08-21T04:34:22;3.58;;;1.80;;
67274;SDS011;55463;52.324;5.122;2023-08-21T04:36:47;3.25;;;1.90;;
67274;SDS011;55463;52.324;5.122;2023-08-21T04:39:14;3.20;;;1.70;;
67274;SDS011;55463;52.324;5.122;2023-08-21T04:41:40;3.05;;;1.88;;
67274;SDS011;55463;52.324;5.122;2023-08-21T04:44:06;3.70;;;1.88;;
67274;SDS011;55463;52.324;5.122;2023-08-21T04:46:32;5.50;;;2.20;;
67274;SDS011;55463;52.324;5.122;2023-08-21T04:48:57;3.92;;;2.15;;
67274;SDS011;55463;52.324;5.122;2023-08-21T04:51:22;4.28;;;2.25;;
67274;SDS011;55463;52.324;5.122;2023-08-21T04:53:48;5.05;;;2.10;;
67274;SDS011;55463;52.324;5.122;2023-08-21T04:56:13;2.70;;;1.90;;
67274;SDS011;55463;52.324;5.122;2023-08-21T04:58:38;6.28;;;2.20;;
67274;SDS011;55463;52.324;5.122;2023-08-21T05:01:04;5.60;;;2.22;;
67274;SDS011;55463;52.324;5.122;2023-08-21T05:03:30;3.97;;;2.00;;
67274;SDS011;55463;52.324;5.122;2023-08-21T05:05:55;6.30;;;2.28;;
67274;SDS011;55463;52.324;5.122;2023-08-21T05:08:22;6.85;;;2.20;;
67274;SDS011;55463;52.324;5.122;2023-08-21T05:10:53;6.60;;;2.65;;
67274;SDS011;55463;52.324;5.122;2023-08-21T05:13:22;3.00;;;2.10;;
67274;SDS011;55463;52.324;5.122;2023-08-21T05:15:54;3.53;;;2.35;;
67274;SDS011;55463;52.324;5.122;2023-08-21T05:18:21;6.30;;;2.33;;
67274;SDS011;55463;52.324;5.122;2023-08-21T05:20:48;5.57;;;2.20;;
67274;SDS011;55463;52.324;5.122;2023-08-21T05:23:14;5.38;;;2.38;;
67274;SDS011;55463;52.324;5.122;2023-08-21T05:25:40;6.18;;;2.83;;
67274;SDS011;55463;52.324;5.122;2023-08-21T05:28:06;4.88;;;2.30;;
67274;SDS011;55463;52.324;5.122;2023-08-21T05:30:31;4.72;;;2.78;;
67274;SDS011;55463;52.324;5.122;2023-08-21T05:32:57;3.70;;;2.28;;
67274;SDS011;55463;52.324;5.122;2023-08-21T05:35:22;7.50;;;3.10;;
67274;SDS011;55463;52.324;5.122;2023-08-21T05:37:48;6.38;;;2.40;;
67274;SDS011;55463;52.324;5.122;2023-08-21T05:40:13;5.03;;;2.65;;
67274;SDS011;55463;52.324;5.122;2023-08-21T05:42:39;6.47;;;2.58;;
67274;SDS011;55463;52.324;5.122;2023-08-21T05:45:05;8.40;;;2.95;;
67274;SDS011;55463;52.324;5.122;2023-08-21T05:47:30;6.85;;;2.50;;
67274;SDS011;55463;52.324;5.122;2023-08-21T05:49:56;6.45;;;2.60;;
67274;SDS011;55463;52.324;5.122;2023-08-21T05:52:21;5.75;;;2.78;;
67274;SDS011;55463;52.324;5.122;2023-08-21T05:54:50;8.02;;;3.05;;
67274;SDS011;55463;52.324;5.122;2023-08-21T05:57:15;7.25;;;2.67;;
67274;SDS011;55463;52.324;5.122;2023-08-21T05:59:44;6.80;;;2.78;;
67274;SDS011;55463;52.324;5.122;2023-08-21T06:02:11;6.30;;;2.60;;
67274;SDS011;55463;52.324;5.122;2023-08-21T06:04:37;6.65;;;2.83;;
67274;SDS011;55463;52.324;5.122;2023-08-21T06:07:05;11.38;;;3.45;;
67274;SDS011;55463;52.324;5.122;2023-08-21T06:09:30;9.63;;;3.50;;
67274;SDS011;55463;52.324;5.122;2023-08-21T06:11:58;7.45;;;2.65;;
67274;SDS011;55463;52.324;5.122;2023-08-21T06:14:30;11.43;;;3.22;;
67274;SDS011;55463;52.324;5.122;2023-08-21T06:16:59;12.85;;;3.83;;
67274;SDS011;55463;52.324;5.122;2023-08-21T06:19:26;5.75;;;3.10;;
67274;SDS011;55463;52.324;5.122;2023-08-21T06:21:51;12.70;;;3.30;;
67274;SDS011;55463;52.324;5.122;2023-08-21T06:24:17;12.05;;;3.58;;
67274;SDS011;55463;52.324;5.122;2023-08-21T06:26:42;14.45;;;3.63;;
67274;SDS011;55463;52.324;5.122;2023-08-21T06:29:08;7.70;;;3.40;;
67274;SDS011;55463;52.324;5.122;2023-08-21T06:31:33;7.75;;;3.60;;
67274;SDS011;55463;52.324;5.122;2023-08-21T06:33:58;11.45;;;2.85;;
67274;SDS011;55463;52.324;5.122;2023-08-21T06:36:24;13.80;;;3.20;;
67274;SDS011;55463;52.324;5.122;2023-08-21T06:38:49;6.88;;;3.50;;
67274;SDS011;55463;52.324;5.122;2023-08-21T06:41:15;13.30;;;3.63;;
67274;SDS011;55463;52.324;5.122;2023-08-21T06:43:40;4.95;;;2.88;;
67274;SDS011;55463;52.324;5.122;2023-08-21T06:46:06;9.30;;;3.20;;
67274;SDS011;55463;52.324;5.122;2023-08-21T06:48:32;8.45;;;3.00;;
67274;SDS011;55463;52.324;5.122;2023-08-21T06:50:57;11.70;;;3.45;;
67274;SDS011;55463;52.324;5.122;2023-08-21T06:53:22;8.13;;;3.65;;
67274;SDS011;55463;52.324;5.122;2023-08-21T06:55:48;6.28;;;2.80;;
67274;SDS011;55463;52.324;5.122;2023-08-21T06:58:13;13.38;;;4.22;;
67274;SDS011;55463;52.324;5.122;2023-08-21T07:00:39;9.52;;;2.65;;
67274;SDS011;55463;52.324;5.122;2023-08-21T07:03:04;8.93;;;2.33;;
67274;SDS011;55463;52.324;5.122;2023-08-21T07:05:32;5.43;;;1.83;;
67274;SDS011;55463;52.324;5.122;2023-08-21T07:08:00;4.18;;;1.88;;
67274;SDS011;55463;52.324;5.122;2023-08-21T07:10:25;7.63;;;2.13;;
67274;SDS011;55463;52.324;5.122;2023-08-21T07:12:52;12.18;;;2.10;;
67274;SDS011;55463;52.324;5.122;2023-08-21T07:15:18;4.05;;;1.90;;
67274;SDS011;55463;52.324;5.122;2023-08-21T07:17:44;8.18;;;2.10;;
67274;SDS011;55463;52.324;5.122;2023-08-21T07:20:09;5.80;;;2.10;;
67274;SDS011;55463;52.324;5.122;2023-08-21T07:22:35;9.77;;;2.40;;
67274;SDS011;55463;52.324;5.122;2023-08-21T07:25:01;6.00;;;2.00;;
67274;SDS011;55463;52.324;5.122;2023-08-21T07:27:29;5.68;;;2.00;;
67274;SDS011;55463;52.324;5.122;2023-08-21T07:29:55;5.07;;;2.00;;
67274;SDS011;55463;52.324;5.122;2023-08-21T07:32:21;10.50;;;2.10;;
67274;SDS011;55463;52.324;5.122;2023-08-21T07:34:46;9.95;;;2.00;;
67274;SDS011;55463;52.324;5.122;2023-08-21T07:37:11;4.85;;;1.83;;
67274;SDS011;55463;52.324;5.122;2023-08-21T07:39:37;5.47;;;1.95;;
67274;SDS011;55463;52.324;5.122;2023-08-21T07:42:02;5.63;;;1.95;;
67274;SDS011;55463;52.324;5.122;2023-08-21T07:44:28;5.90;;;1.83;;
67274;SDS011;55463;52.324;5.122;2023-08-21T07:46:53;9.40;;;2.78;;
67274;SDS011;55463;52.324;5.122;2023-08-21T07:49:18;8.35;;;1.73;;
67274;SDS011;55463;52.324;5.122;2023-08-21T07:51:44;9.38;;;2.35;;
67274;SDS011;55463;52.324;5.122;2023-08-21T07:54:09;7.47;;;2.00;;
67274;SDS011;55463;52.324;5.122;2023-08-21T07:56:35;2.85;;;1.80;;
67274;SDS011;55463;52.324;5.122;2023-08-21T07:59:01;8.38;;;2.17;;
67274;SDS011;55463;52.324;5.122;2023-08-21T08:01:27;6.30;;;1.63;;
67274;SDS011;55463;52.324;5.122;2023-08-21T08:03:52;7.63;;;2.08;;
67274;SDS011;55463;52.324;5.122;2023-08-21T08:06:18;9.43;;;2.17;;
67274;SDS011;55463;52.324;5.122;2023-08-21T08:08:43;5.35;;;1.77;;
67274;SDS011;55463;52.324;5.122;2023-08-21T08:11:09;9.10;;;1.83;;
67274;SDS011;55463;52.324;5.122;2023-08-21T08:13:34;9.20;;;2.03;;
67274;SDS011;55463;52.324;5.122;2023-08-21T08:16:00;5.55;;;1.70;;
67274;SDS011;55463;52.324;5.122;2023-08-21T08:18:26;7.43;;;2.08;;
67274;SDS011;55463;52.324;5.122;2023-08-21T08:20:51;10.02;;;1.88;;
67274;SDS011;55463;52.324;5.122;2023-08-21T08:23:19;6.15;;;2.20;;
67274;SDS011;55463;52.324;5.122;2023-08-21T08:25:44;6.20;;;2.20;;
67274;SDS011;55463;52.324;5.122;2023-08-21T08:28:10;7.15;;;2.08;;
67274;SDS011;55463;52.324;5.122;2023-08-21T08:30:35;8.23;;;2.58;;
67274;SDS011;55463;52.324;5.122;2023-08-21T08:33:01;6.43;;;2.33;;
67274;SDS011;55463;52.324;5.122;2023-08-21T08:35:26;9.00;;;2.10;;
67274;SDS011;55463;52.324;5.122;2023-08-21T08:37:51;13.25;;;2.50;;
67274;SDS011;55463;52.324;5.122;2023-08-21T08:40:17;8.85;;;2.30;;
67274;SDS011;55463;52.324;5.122;2023-08-21T08:42:42;7.00;;;2.22;;
67274;SDS011;55463;52.324;5.122;2023-08-21T08:45:08;7.13;;;2.38;;
67274;SDS011;55463;52.324;5.122;2023-08-21T08:47:34;9.07;;;2.55;;
67274;SDS011;55463;52.324;5.122;2023-08-21T08:50:04;11.80;;;2.53;;
67274;SDS011;55463;52.324;5.122;2023-08-21T08:52:31;10.05;;;2.50;;
67274;SDS011;55463;52.324;5.122;2023-08-21T08:55:00;7.87;;;2.47;;
67274;SDS011;55463;52.324;5.122;2023-08-21T08:57:25;7.75;;;2.53;;
67274;SDS011;55463;52.324;5.122;2023-08-21T08:59:51;9.70;;;2.80;;
67274;SDS011;55463;52.324;5.122;2023-08-21T09:02:16;9.02;;;2.30;;
67274;SDS011;55463;52.324;5.122;2023-08-21T09:04:42;9.57;;;3.03;;
67274;SDS011;55463;52.324;5.122;2023-08-21T09:07:08;11.73;;;2.20;;
67274;SDS011;55463;52.324;5.122;2023-08-21T09:09:41;8.38;;;2.65;;
67274;SDS011;55463;52.324;5.122;2023-08-21T09:12:12;6.30;;;2.63;;
67274;SDS011;55463;52.324;5.122;2023-08-21T09:14:39;8.23;;;2.47;;
67274;SDS011;55463;52.324;5.122;2023-08-21T09:17:05;9.70;;;2.60;;
67274;SDS011;55463;52.324;5.122;2023-08-21T09:19:31;9.00;;;2.45;;
67274;SDS011;55463;52.324;5.122;2023-08-21T09:21:57;8.75;;;2.70;;
67274;SDS011;55463;52.324;5.122;2023-08-21T09:24:22;7.20;;;2.40;;
67274;SDS011;55463;52.324;5.122;2023-08-21T09:26:48;9.70;;;2.80;;
67274;SDS011;55463;52.324;5.122;2023-08-21T09:29:14;10.63;;;2.78;;
67274;SDS011;55463;52.324;5.122;2023-08-21T09:31:39;9.40;;;2.60;;
67274;SDS011;55463;52.324;5.122;2023-08-21T09:34:05;8.27;;;2.47;;
67274;SDS011;55463;52.324;5.122;2023-08-21T09:36:30;7.18;;;2.70;;
67274;SDS011;55463;52.324;5.122;2023-08-21T09:38:56;8.10;;;2.47;;
67274;SDS011;55463;52.324;5.122;2023-08-21T09:41:22;12.02;;;2.55;;
67274;SDS011;55463;52.324;5.122;2023-08-21T09:43:49;8.93;;;2.53;;
67274;SDS011;55463;52.324;5.122;2023-08-21T09:46:15;9.63;;;2.22;;
67274;SDS011;55463;52.324;5.122;2023-08-21T09:48:44;9.80;;;2.60;;
67274;SDS011;55463;52.324;5.122;2023-08-21T09:51:13;9.33;;;2.20;;
67274;SDS011;55463;52.324;5.122;2023-08-21T09:53:38;8.13;;;2.15;;
67274;SDS011;55463;52.324;5.122;2023-08-21T09:56:05;8.23;;;2.63;;
67274;SDS011;55463;52.324;5.122;2023-08-21T09:58:31;10.02;;;2.22;;
67274;SDS011;55463;52.324;5.122;2023-08-21T10:00:57;11.15;;;3.53;;
67274;SDS011;55463;52.324;5.122;2023-08-21T10:03:23;6.57;;;2.17;;
67274;SDS011;55463;52.324;5.122;2023-08-21T10:05:50;6.43;;;2.50;;
67274;SDS011;55463;52.324;5.122;2023-08-21T10:08:18;7.72;;;2.15;;
67274;SDS011;55463;52.324;5.122;2023-08-21T10:10:48;7.45;;;2.22;;
67274;SDS011;55463;52.324;5.122;2023-08-21T10:13:13;8.50;;;2.38;;
67274;SDS011;55463;52.324;5.122;2023-08-21T10:15:39;9.90;;;3.25;;
67274;SDS011;55463;52.324;5.122;2023-08-21T10:18:21;10.90;;;2.63;;
67274;SDS011;55463;52.324;5.122;2023-08-21T10:20:48;12.80;;;3.30;;
67274;SDS011;55463;52.324;5.122;2023-08-21T10:24:15;11.05;;;2.75;;
67274;SDS011;55463;52.324;5.122;2023-08-21T10:26:20;9.63;;;2.70;;
67274;SDS011;55463;52.324;5.122;2023-08-21T10:28:53;15.93;;;3.03;;
67274;SDS011;55463;52.324;5.122;2023-08-21T10:31:30;6.32;;;2.20;;
67274;SDS011;55463;52.324;5.122;2023-08-21T10:34:08;6.82;;;2.38;;
67274;SDS011;55463;52.324;5.122;2023-08-21T10:41:55;6.20;;;1.70;;
67274;SDS011;55463;52.324;5.122;2023-08-21T10:49:49;10.65;;;2.30;;
67274;SDS011;55463;52.324;5.122;2023-08-21T10:52:20;8.70;;;1.90;;
67274;SDS011;55463;52.324;5.122;2023-08-21T10:54:49;6.63;;;2.38;;
67274;SDS011;55463;52.324;5.122;2023-08-21T10:57:26;6.75;;;2.10;;
67274;SDS011;55463;52.324;5.122;2023-08-21T10:59:54;7.63;;;2.53;;
67274;SDS011;55463;52.324;5.122;2023-08-21T11:02:24;9.23;;;2.10;;
67274;SDS011;55463;52.324;5.122;2023-08-21T11:04:52;5.40;;;1.95;;
67274;SDS011;55463;52.324;5.122;2023-08-21T11:07:18;8.15;;;2.70;;
67274;SDS011;55463;52.324;5.122;2023-08-21T11:09:44;6.28;;;1.95;;
67274;SDS011;55463;52.324;5.122;2023-08-21T11:12:13;8.65;;;1.90;;
67274;SDS011;55463;52.324;5.122;2023-08-21T11:14:40;9.27;;;2.22;;
67274;SDS011;55463;52.324;5.122;2023-08-21T11:17:07;5.90;;;1.75;;
67274;SDS011;55463;52.324;5.122;2023-08-21T11:19:34;4.13;;;1.90;;
67274;SDS011;55463;52.324;5.122;2023-08-21T11:22:00;7.15;;;1.98;;
67274;SDS011;55463;52.324;5.122;2023-08-21T11:24:50;4.88;;;2.13;;
67274;SDS011;55463;52.324;5.122;2023-08-21T11:27:16;9.48;;;1.88;;
67274;SDS011;55463;52.324;5.122;2023-08-21T11:29:47;6.10;;;2.28;;
67274;SDS011;55463;52.324;5.122;2023-08-21T11:32:17;4.93;;;1.55;;
67274;SDS011;55463;52.324;5.122;2023-08-21T11:37:20;17.33;;;1.85;;
67274;SDS011;55463;52.324;5.122;2023-08-21T11:39:51;7.10;;;1.58;;
67274;SDS011;55463;52.324;5.122;2023-08-21T11:42:21;3.90;;;1.20;;
67274;SDS011;55463;52.324;5.122;2023-08-21T11:44:51;9.13;;;3.45;;
67274;SDS011;55463;52.324;5.122;2023-08-21T11:47:18;4.65;;;1.42;;
67274;SDS011;55463;52.324;5.122;2023-08-21T11:49:46;3.78;;;1.50;;
67274;SDS011;55463;52.324;5.122;2023-08-21T11:52:21;4.00;;;1.55;;
67274;SDS011;55463;52.324;5.122;2023-08-21T11:54:50;4.80;;;1.55;;
67274;SDS011;55463;52.324;5.122;2023-08-21T11:57:17;4.68;;;1.60;;
67274;SDS011;55463;52.324;5.122;2023-08-21T11:59:42;4.68;;;1.60;;
67274;SDS011;55463;52.324;5.122;2023-08-21T12:02:16;4.82;;;1.60;;
67274;SDS011;55463;52.324;5.122;2023-08-21T12:04:43;4.60;;;1.30;;
67274;SDS011;55463;52.324;5.122;2023-08-21T12:07:09;2.17;;;1.15;;
67274;SDS011;55463;52.324;5.122;2023-08-21T12:09:34;5.45;;;1.55;;
67274;SDS011;55463;52.324;5.122;2023-08-21T12:12:00;3.92;;;1.40;;
67274;SDS011;55463;52.324;5.122;2023-08-21T12:14:27;1.88;;;1.00;;
67274;SDS011;55463;52.324;5.122;2023-08-21T12:16:53;6.00;;;1.50;;
67274;SDS011;55463;52.324;5.122;2023-08-21T12:19:19;3.67;;;1.33;;
67274;SDS011;55463;52.324;5.122;2023-08-21T12:21:44;4.38;;;1.30;;
67274;SDS011;55463;52.324;5.122;2023-08-21T12:24:10;2.03;;;1.08;;
67274;SDS011;55463;52.324;5.122;2023-08-21T12:26:35;5.82;;;1.20;;
67274;SDS011;55463;52.324;5.122;2023-08-21T12:29:01;2.45;;;0.98;;
67274;SDS011;55463;52.324;5.122;2023-08-21T12:31:27;12.75;;;1.40;;
67274;SDS011;55463;52.324;5.122;2023-08-21T12:33:53;2.53;;;1.00;;
67274;SDS011;55463;52.324;5.122;2023-08-21T12:36:18;0.73;;;0.68;;
67274;SDS011;55463;52.324;5.122;2023-08-21T12:38:44;1.60;;;0.80;;
67274;SDS011;55463;52.324;5.122;2023-08-21T12:41:09;2.08;;;0.85;;
67274;SDS011;55463;52.324;5.122;2023-08-21T12:43:35;2.70;;;1.30;;
67274;SDS011;55463;52.324;5.122;2023-08-21T12:46:00;1.85;;;1.27;;
67274;SDS011;55463;52.324;5.122;2023-08-21T12:48:26;3.10;;;1.30;;
67274;SDS011;55463;52.324;5.122;2023-08-21T12:50:51;2.42;;;1.10;;
67274;SDS011;55463;52.324;5.122;2023-08-21T12:53:16;4.53;;;1.10;;
67274;SDS011;55463;52.324;5.122;2023-08-21T12:55:42;2.67;;;1.10;;
67274;SDS011;55463;52.324;5.122;2023-08-21T12:58:07;8.40;;;1.83;;
67274;SDS011;55463;52.324;5.122;2023-08-21T13:00:33;3.30;;;1.30;;
67274;SDS011;55463;52.324;5.122;2023-08-21T13:02:58;5.47;;;1.60;;
67274;SDS011;55463;52.324;5.122;2023-08-21T13:05:24;2.67;;;1.40;;
67274;SDS011;55463;52.324;5.122;2023-08-21T13:07:50;3.28;;;1.25;;
67274;SDS011;55463;52.324;5.122;2023-08-21T13:10:15;3.28;;;1.38;;
67274;SDS011;55463;52.324;5.122;2023-08-21T13:12:41;2.92;;;1.30;;
67274;SDS011;55463;52.324;5.122;2023-08-21T13:15:06;5.05;;;1.25;;
67274;SDS011;55463;52.324;5.122;2023-08-21T13:17:34;6.15;;;1.42;;
67274;SDS011;55463;52.324;5.122;2023-08-21T13:20:00;2.42;;;1.00;;
67274;SDS011;55463;52.324;5.122;2023-08-21T13:22:25;3.30;;;1.48;;
67274;SDS011;55463;52.324;5.122;2023-08-21T13:24:51;6.15;;;1.23;;
67274;SDS011;55463;52.324;5.122;2023-08-21T13:27:16;5.28;;;1.42;;
67274;SDS011;55463;52.324;5.122;2023-08-21T13:29:42;2.47;;;1.35;;
67274;SDS011;55463;52.324;5.122;2023-08-21T13:32:07;6.05;;;1.38;;
67274;SDS011;55463;52.324;5.122;2023-08-21T13:34:33;3.17;;;1.25;;
67274;SDS011;55463;52.324;5.122;2023-08-21T13:36:58;3.85;;;1.27;;
67274;SDS011;55463;52.324;5.122;2023-08-21T13:39:23;5.20;;;1.50;;
67274;SDS011;55463;52.324;5.122;2023-08-21T13:41:51;2.95;;;1.20;;
67274;SDS011;55463;52.324;5.122;2023-08-21T13:44:16;2.28;;;1.20;;
67274;SDS011;55463;52.324;5.122;2023-08-21T13:46:42;3.40;;;1.13;;
67274;SDS011;55463;52.324;5.122;2023-08-21T13:49:07;5.78;;;1.30;;
67274;SDS011;55463;52.324;5.122;2023-08-21T13:51:34;3.00;;;1.25;;
67274;SDS011;55463;52.324;5.122;2023-08-21T13:53:59;7.10;;;1.40;;
67274;SDS011;55463;52.324;5.122;2023-08-21T13:56:25;8.35;;;1.20;;
67274;SDS011;55463;52.324;5.122;2023-08-21T13:58:50;3.45;;;1.02;;
67274;SDS011;55463;52.324;5.122;2023-08-21T14:01:15;4.07;;;1.17;;
67274;SDS011;55463;52.324;5.122;2023-08-21T14:03:41;2.67;;;1.23;;
67274;SDS011;55463;52.324;5.122;2023-08-21T14:06:07;8.27;;;1.33;;
67274;SDS011;55463;52.324;5.122;2023-08-21T14:08:35;8.48;;;1.27;;
67274;SDS011;55463;52.324;5.122;2023-08-21T14:11:01;4.20;;;1.20;;
67274;SDS011;55463;52.324;5.122;2023-08-21T14:13:26;5.93;;;1.30;;
67274;SDS011;55463;52.324;5.122;2023-08-21T14:15:51;1.65;;;1.10;;
67274;SDS011;55463;52.324;5.122;2023-08-21T14:18:17;4.70;;;1.35;;
67274;SDS011;55463;52.324;5.122;2023-08-21T14:20:42;4.18;;;1.20;;
67274;SDS011;55463;52.324;5.122;2023-08-21T14:23:08;5.60;;;1.17;;
67274;SDS011;55463;52.324;5.122;2023-08-21T14:25:33;3.40;;;1.10;;
67274;SDS011;55463;52.324;5.122;2023-08-21T14:27:58;3.00;;;1.50;;
67274;SDS011;55463;52.324;5.122;2023-08-21T14:30:24;1.95;;;1.08;;
67274;SDS011;55463;52.324;5.122;2023-08-21T14:32:49;3.13;;;1.30;;
67274;SDS011;55463;52.324;5.122;2023-08-21T14:35:14;2.70;;;1.13;;
67274;SDS011;55463;52.324;5.122;2023-08-21T14:37:40;6.50;;;1.40;;
67274;SDS011;55463;52.324;5.122;2023-08-21T14:40:05;2.20;;;1.17;;
67274;SDS011;55463;52.324;5.122;2023-08-21T14:42:35;3.33;;;1.30;;
67274;SDS011;55463;52.324;5.122;2023-08-21T14:45:01;3.40;;;1.15;;
67274;SDS011;55463;52.324;5.122;2023-08-21T14:47:28;3.40;;;1.20;;
67274;SDS011;55463;52.324;5.122;2023-08-21T14:49:53;5.43;;;1.05;;
67274;SDS011;55463;52.324;5.122;2023-08-21T14:52:19;2.42;;;1.20;;
67274;SDS011;55463;52.324;5.122;2023-08-21T14:54:45;3.17;;;1.23;;
67274;SDS011;55463;52.324;5.122;2023-08-21T14:57:11;8.88;;;1.20;;